sensor_id;sensor_type;location;lat;lon;timestamp;temperature;humidity
61910;DHT22;47865;52.086;5.410;2022-09-14T12:34:04;20.70;99.90
61910;DHT22;47865;52.086;5.410;2022-09-14T12:46:54;20.90;99.90
61910;DHT22;47865;52.086;5.410;2022-09-14T12:49:27;21.00;99.90
61910;DHT22;47865;52.086;5.410;2022-09-14T12:51:55;21.10;99.90
61910;DHT22;47865;52.086;5.410;2022-09-14T12:57:58;21.00;99.90
61910;DHT22;47865;52.086;5.410;2022-09-14T13:00:29;21.00;99.90
61910;DHT22;47865;52.086;5.410;2022-09-14T13:03:39;21.10;99.90
61910;DHT22;47865;52.086;5.410;2022-09-14T13:06:12;21.20;99.90
61910;DHT22;47865;52.086;5.410;2022-09-14T13:08:43;21.50;99.90
61910;DHT22;47865;52.086;5.410;2022-09-14T13:11:21;21.90;99.90
61910;DHT22;47865;52.086;5.410;2022-09-14T13:13:49;22.40;99.90
61910;DHT22;47865;52.086;5.410;2022-09-14T13:16:38;22.60;99.90
61910;DHT22;47865;52.086;5.410;2022-09-14T13:19:18;22.50;99.90
61910;DHT22;47865;52.086;5.410;2022-09-14T13:21:48;22.50;99.90
61910;DHT22;47865;52.086;5.410;2022-09-14T13:24:27;22.30;99.90
61910;DHT22;47865;52.086;5.410;2022-09-14T13:26:57;22.10;99.90
61910;DHT22;47865;52.086;5.410;2022-09-14T13:29:25;22.10;99.90
61910;DHT22;47865;52.086;5.410;2022-09-14T13:31:55;22.40;99.90
61910;DHT22;47865;52.086;5.410;2022-09-14T13:34:32;22.50;99.90
61910;DHT22;47865;52.086;5.410;2022-09-14T13:37:00;22.50;99.90
61910;DHT22;47865;52.086;5.410;2022-09-14T13:39:30;22.70;99.90
61910;DHT22;47865;52.086;5.410;2022-09-14T13:41:58;22.60;99.90
61910;DHT22;47865;52.086;5.410;2022-09-14T13:44:33;22.60;99.90
61910;DHT22;47865;52.086;5.410;2022-09-14T13:47:03;22.40;99.90
61910;DHT22;47865;52.086;5.410;2022-09-14T13:49:30;22.40;99.90
61910;DHT22;47865;52.086;5.410;2022-09-14T14:00:58;22.10;99.90
61910;DHT22;47865;52.086;5.410;2022-09-14T14:03:52;22.50;99.90
61910;DHT22;47865;52.086;5.410;2022-09-14T14:06:28;22.60;99.90
61910;DHT22;47865;52.086;5.410;2022-09-14T14:09:01;22.60;99.90
61910;DHT22;47865;52.086;5.410;2022-09-14T14:11:35;22.70;99.90
61910;DHT22;47865;52.086;5.410;2022-09-14T14:14:18;22.40;99.90
61910;DHT22;47865;52.086;5.410;2022-09-14T14:17:24;22.20;99.90
61910;DHT22;47865;52.086;5.410;2022-09-14T14:19:53;22.00;99.90
61910;DHT22;47865;52.086;5.410;2022-09-14T14:22:52;22.00;99.90
61910;DHT22;47865;52.086;5.410;2022-09-14T14:25:18;21.90;99.90
61910;DHT22;47865;52.086;5.410;2022-09-14T14:27:46;22.10;99.90
61910;DHT22;47865;52.086;5.410;2022-09-14T14:30:20;22.00;99.90
61910;DHT22;47865;52.086;5.410;2022-09-14T14:32:51;21.90;99.90
61910;DHT22;47865;52.086;5.410;2022-09-14T14:35:20;21.80;99.90
61910;DHT22;47865;52.086;5.410;2022-09-14T14:37:49;21.90;99.90
61910;DHT22;47865;52.086;5.410;2022-09-14T14:40:17;22.00;99.90
61910;DHT22;47865;52.086;5.410;2022-09-14T14:42:44;21.90;99.90
61910;DHT22;47865;52.086;5.410;2022-09-14T14:45:14;21.80;99.90
61910;DHT22;47865;52.086;5.410;2022-09-14T14:47:48;21.80;99.90
61910;DHT22;47865;52.086;5.410;2022-09-14T14:50:19;21.90;99.90
61910;DHT22;47865;52.086;5.410;2022-09-14T14:52:46;22.00;99.90
61910;DHT22;47865;52.086;5.410;2022-09-14T14:55:13;22.40;99.90
61910;DHT22;47865;52.086;5.410;2022-09-14T14:57:40;22.50;99.90
61910;DHT22;47865;52.086;5.410;2022-09-14T15:00:13;22.50;99.90
61910;DHT22;47865;52.086;5.410;2022-09-14T15:02:40;22.50;99.90
61910;DHT22;47865;52.086;5.410;2022-09-14T15:05:08;22.50;99.90
61910;DHT22;47865;52.086;5.410;2022-09-14T15:07:35;22.50;99.90
61910;DHT22;47865;52.086;5.410;2022-09-14T15:10:04;22.70;99.90
61910;DHT22;47865;52.086;5.410;2022-09-14T15:12:32;22.60;99.90
61910;DHT22;47865;52.086;5.410;2022-09-14T15:14:59;22.50;99.90
61910;DHT22;47865;52.086;5.410;2022-09-14T15:17:26;22.50;99.90
61910;DHT22;47865;52.086;5.410;2022-09-14T15:19:53;22.70;99.90
61910;DHT22;47865;52.086;5.410;2022-09-14T15:22:20;22.80;99.90
61910;DHT22;47865;52.086;5.410;2022-09-14T15:24:47;22.90;99.90
61910;DHT22;47865;52.086;5.410;2022-09-14T15:27:13;22.90;99.90
61910;DHT22;47865;52.086;5.410;2022-09-14T15:29:40;23.00;99.90
61910;DHT22;47865;52.086;5.410;2022-09-14T15:32:07;23.00;99.90
61910;DHT22;47865;52.086;5.410;2022-09-14T15:34:34;22.90;99.90
61910;DHT22;47865;52.086;5.410;2022-09-14T15:37:01;22.70;99.90
61910;DHT22;47865;52.086;5.410;2022-09-14T15:39:29;22.70;99.90
61910;DHT22;47865;52.086;5.410;2022-09-14T15:41:57;22.50;99.90
61910;DHT22;47865;52.086;5.410;2022-09-14T15:44:24;22.20;99.90
61910;DHT22;47865;52.086;5.410;2022-09-14T15:46:51;22.20;99.90
61910;DHT22;47865;52.086;5.410;2022-09-14T15:49:20;22.20;99.90
61910;DHT22;47865;52.086;5.410;2022-09-14T15:51:49;22.00;99.90
61910;DHT22;47865;52.086;5.410;2022-09-14T15:54:17;21.80;99.90
61910;DHT22;47865;52.086;5.410;2022-09-14T15:56:49;21.70;99.90
61910;DHT22;47865;52.086;5.410;2022-09-14T15:59:16;21.60;99.90
61910;DHT22;47865;52.086;5.410;2022-09-14T16:01:43;21.40;99.90
61910;DHT22;47865;52.086;5.410;2022-09-14T16:04:10;21.30;99.90
61910;DHT22;47865;52.086;5.410;2022-09-14T16:06:37;21.10;99.90
61910;DHT22;47865;52.086;5.410;2022-09-14T16:09:06;20.80;99.90
61910;DHT22;47865;52.086;5.410;2022-09-14T16:11:34;20.70;99.90
61910;DHT22;47865;52.086;5.410;2022-09-14T16:14:01;20.70;99.90
61910;DHT22;47865;52.086;5.410;2022-09-14T16:16:28;20.50;99.90
61910;DHT22;47865;52.086;5.410;2022-09-14T16:18:55;20.50;99.90
61910;DHT22;47865;52.086;5.410;2022-09-14T16:21:25;20.40;99.90
61910;DHT22;47865;52.086;5.410;2022-09-14T16:23:56;20.30;99.90
61910;DHT22;47865;52.086;5.410;2022-09-14T16:26:27;20.30;99.90
61910;DHT22;47865;52.086;5.410;2022-09-14T16:28:55;20.30;99.90
61910;DHT22;47865;52.086;5.410;2022-09-14T16:31:27;20.40;99.90
61910;DHT22;47865;52.086;5.410;2022-09-14T16:33:57;20.40;99.90
61910;DHT22;47865;52.086;5.410;2022-09-14T16:36:27;20.30;99.90
61910;DHT22;47865;52.086;5.410;2022-09-14T16:38:56;20.30;99.90
61910;DHT22;47865;52.086;5.410;2022-09-14T16:41:24;20.20;99.90
61910;DHT22;47865;52.086;5.410;2022-09-14T16:43:58;20.10;99.90
61910;DHT22;47865;52.086;5.410;2022-09-14T16:46:26;20.10;99.90
61910;DHT22;47865;52.086;5.410;2022-09-14T16:48:54;20.00;99.90
61910;DHT22;47865;52.086;5.410;2022-09-14T16:51:23;20.00;99.90
61910;DHT22;47865;52.086;5.410;2022-09-14T16:53:51;19.90;99.90
61910;DHT22;47865;52.086;5.410;2022-09-14T16:56:23;19.80;99.90
61910;DHT22;47865;52.086;5.410;2022-09-14T16:58:52;19.80;99.90
61910;DHT22;47865;52.086;5.410;2022-09-14T17:03:47;19.60;99.90
61910;DHT22;47865;52.086;5.410;2022-09-14T17:06:17;19.50;99.90
61910;DHT22;47865;52.086;5.410;2022-09-14T17:08:45;19.40;99.90
61910;DHT22;47865;52.086;5.410;2022-09-14T17:11:13;19.30;99.90
61910;DHT22;47865;52.086;5.410;2022-09-14T17:13:42;19.20;99.90
61910;DHT22;47865;52.086;5.410;2022-09-14T17:16:12;19.20;99.90
61910;DHT22;47865;52.086;5.410;2022-09-14T17:18:41;19.00;99.90
61910;DHT22;47865;52.086;5.410;2022-09-14T17:21:11;19.00;99.90
61910;DHT22;47865;52.086;5.410;2022-09-14T17:23:38;18.90;99.90
61910;DHT22;47865;52.086;5.410;2022-09-14T17:26:08;18.90;99.90
61910;DHT22;47865;52.086;5.410;2022-09-14T17:28:36;18.70;99.90
61910;DHT22;47865;52.086;5.410;2022-09-14T17:31:05;18.70;99.90
61910;DHT22;47865;52.086;5.410;2022-09-14T17:33:33;18.60;99.90
61910;DHT22;47865;52.086;5.410;2022-09-14T17:36:03;18.50;99.90
61910;DHT22;47865;52.086;5.410;2022-09-14T17:38:33;18.50;99.90
61910;DHT22;47865;52.086;5.410;2022-09-14T17:41:02;18.30;99.90
61910;DHT22;47865;52.086;5.410;2022-09-14T17:43:31;18.30;99.90
61910;DHT22;47865;52.086;5.410;2022-09-14T17:45:58;18.20;99.90
61910;DHT22;47865;52.086;5.410;2022-09-14T17:48:26;18.20;99.90
61910;DHT22;47865;52.086;5.410;2022-09-14T17:50:53;18.20;99.90
61910;DHT22;47865;52.086;5.410;2022-09-14T17:53:20;18.20;99.90
61910;DHT22;47865;52.086;5.410;2022-09-14T17:55:48;18.20;99.90
61910;DHT22;47865;52.086;5.410;2022-09-14T17:58:14;18.20;99.90
61910;DHT22;47865;52.086;5.410;2022-09-14T18:00:45;18.20;99.90
61910;DHT22;47865;52.086;5.410;2022-09-14T18:03:12;18.10;99.90
61910;DHT22;47865;52.086;5.410;2022-09-14T18:05:38;18.10;99.90
61910;DHT22;47865;52.086;5.410;2022-09-14T18:08:05;18.10;99.90
61910;DHT22;47865;52.086;5.410;2022-09-14T18:10:35;18.10;99.90
61910;DHT22;47865;52.086;5.410;2022-09-14T18:13:01;18.00;99.90
61910;DHT22;47865;52.086;5.410;2022-09-14T18:15:28;18.00;99.90
61910;DHT22;47865;52.086;5.410;2022-09-14T18:17:56;18.00;99.90
61910;DHT22;47865;52.086;5.410;2022-09-14T18:20:23;18.00;99.90
61910;DHT22;47865;52.086;5.410;2022-09-14T18:22:50;18.00;99.90
61910;DHT22;47865;52.086;5.410;2022-09-14T18:25:18;17.90;99.90
61910;DHT22;47865;52.086;5.410;2022-09-14T18:27:44;17.80;99.90
61910;DHT22;47865;52.086;5.410;2022-09-14T18:30:12;17.80;99.90
61910;DHT22;47865;52.086;5.410;2022-09-14T18:32:39;17.70;99.90
61910;DHT22;47865;52.086;5.410;2022-09-14T18:35:06;17.70;99.90
61910;DHT22;47865;52.086;5.410;2022-09-14T18:37:33;17.60;99.90
61910;DHT22;47865;52.086;5.410;2022-09-14T18:40:00;17.60;99.90
61910;DHT22;47865;52.086;5.410;2022-09-14T18:42:27;17.50;99.90
61910;DHT22;47865;52.086;5.410;2022-09-14T18:44:53;17.50;99.90
61910;DHT22;47865;52.086;5.410;2022-09-14T18:47:21;17.40;99.90
61910;DHT22;47865;52.086;5.410;2022-09-14T18:49:48;17.30;99.90
61910;DHT22;47865;52.086;5.410;2022-09-14T18:52:18;17.30;99.90
61910;DHT22;47865;52.086;5.410;2022-09-14T18:54:45;17.20;99.90
61910;DHT22;47865;52.086;5.410;2022-09-14T18:57:11;17.20;99.90
61910;DHT22;47865;52.086;5.410;2022-09-14T18:59:39;17.10;99.90
61910;DHT22;47865;52.086;5.410;2022-09-14T19:02:08;17.10;99.90
61910;DHT22;47865;52.086;5.410;2022-09-14T19:04:36;17.00;99.90
61910;DHT22;47865;52.086;5.410;2022-09-14T19:07:03;17.00;99.90
61910;DHT22;47865;52.086;5.410;2022-09-14T19:09:30;16.90;99.90
61910;DHT22;47865;52.086;5.410;2022-09-14T19:11:57;16.90;99.90
61910;DHT22;47865;52.086;5.410;2022-09-14T19:14:23;16.80;99.90
61910;DHT22;47865;52.086;5.410;2022-09-14T19:16:50;16.70;99.90
61910;DHT22;47865;52.086;5.410;2022-09-14T19:19:17;16.70;99.90
61910;DHT22;47865;52.086;5.410;2022-09-14T19:21:44;16.50;99.90
61910;DHT22;47865;52.086;5.410;2022-09-14T19:24:13;16.50;99.90
61910;DHT22;47865;52.086;5.410;2022-09-14T19:26:45;16.40;99.90
61910;DHT22;47865;52.086;5.410;2022-09-14T19:29:13;16.40;99.90
61910;DHT22;47865;52.086;5.410;2022-09-14T19:31:40;16.40;99.90
61910;DHT22;47865;52.086;5.410;2022-09-14T19:34:09;16.40;99.90
61910;DHT22;47865;52.086;5.410;2022-09-14T19:36:36;16.30;99.90
61910;DHT22;47865;52.086;5.410;2022-09-14T19:39:03;16.30;99.90
61910;DHT22;47865;52.086;5.410;2022-09-14T19:41:31;16.30;99.90
61910;DHT22;47865;52.086;5.410;2022-09-14T19:43:59;16.30;99.90
61910;DHT22;47865;52.086;5.410;2022-09-14T19:46:26;16.30;99.90
61910;DHT22;47865;52.086;5.410;2022-09-14T19:48:54;16.30;99.90
61910;DHT22;47865;52.086;5.410;2022-09-14T19:51:24;16.30;99.90
61910;DHT22;47865;52.086;5.410;2022-09-14T19:53:53;16.30;99.90
61910;DHT22;47865;52.086;5.410;2022-09-14T19:56:22;16.30;99.90
61910;DHT22;47865;52.086;5.410;2022-09-14T19:58:52;16.30;99.90
61910;DHT22;47865;52.086;5.410;2022-09-14T20:01:20;16.30;99.90
61910;DHT22;47865;52.086;5.410;2022-09-14T20:03:48;16.30;99.90
61910;DHT22;47865;52.086;5.410;2022-09-14T20:06:18;16.30;99.90
61910;DHT22;47865;52.086;5.410;2022-09-14T20:08:47;16.20;99.90
61910;DHT22;47865;52.086;5.410;2022-09-14T20:11:16;16.10;99.90
61910;DHT22;47865;52.086;5.410;2022-09-14T20:13:46;16.00;99.90
61910;DHT22;47865;52.086;5.410;2022-09-14T20:16:20;15.90;99.90
61910;DHT22;47865;52.086;5.410;2022-09-14T20:18:48;15.90;99.90
61910;DHT22;47865;52.086;5.410;2022-09-14T20:21:18;15.80;99.90
61910;DHT22;47865;52.086;5.410;2022-09-14T20:23:45;15.70;99.90
61910;DHT22;47865;52.086;5.410;2022-09-14T20:26:32;15.60;99.90
61910;DHT22;47865;52.086;5.410;2022-09-14T20:28:59;15.50;99.90
61910;DHT22;47865;52.086;5.410;2022-09-14T20:31:27;15.50;99.90
61910;DHT22;47865;52.086;5.410;2022-09-14T20:33:55;15.40;99.90
61910;DHT22;47865;52.086;5.410;2022-09-14T20:36:23;15.30;99.90
61910;DHT22;47865;52.086;5.410;2022-09-14T20:38:52;15.30;99.90
61910;DHT22;47865;52.086;5.410;2022-09-14T20:41:25;15.20;99.90
61910;DHT22;47865;52.086;5.410;2022-09-14T20:43:53;15.10;99.90
61910;DHT22;47865;52.086;5.410;2022-09-14T20:46:25;15.10;99.90
61910;DHT22;47865;52.086;5.410;2022-09-14T20:48:52;15.00;99.90
61910;DHT22;47865;52.086;5.410;2022-09-14T20:51:20;15.00;99.90
61910;DHT22;47865;52.086;5.410;2022-09-14T20:53:47;14.90;99.90
61910;DHT22;47865;52.086;5.410;2022-09-14T20:56:20;14.90;99.90
61910;DHT22;47865;52.086;5.410;2022-09-14T20:58:48;14.80;99.90
61910;DHT22;47865;52.086;5.410;2022-09-14T21:01:17;14.80;99.90
61910;DHT22;47865;52.086;5.410;2022-09-14T21:03:45;14.70;99.90
61910;DHT22;47865;52.086;5.410;2022-09-14T21:06:15;14.60;99.90
61910;DHT22;47865;52.086;5.410;2022-09-14T21:08:42;14.60;99.90
61910;DHT22;47865;52.086;5.410;2022-09-14T21:11:15;14.60;99.90
61910;DHT22;47865;52.086;5.410;2022-09-14T21:13:42;14.60;99.90
61910;DHT22;47865;52.086;5.410;2022-09-14T21:16:21;14.70;99.90
61910;DHT22;47865;52.086;5.410;2022-09-14T21:18:55;14.70;99.90
61910;DHT22;47865;52.086;5.410;2022-09-14T21:21:23;14.70;99.90
61910;DHT22;47865;52.086;5.410;2022-09-14T21:23:50;14.80;99.90
61910;DHT22;47865;52.086;5.410;2022-09-14T21:26:18;14.80;99.90
61910;DHT22;47865;52.086;5.410;2022-09-14T21:28:45;14.90;99.90
61910;DHT22;47865;52.086;5.410;2022-09-14T21:31:19;14.80;99.90
61910;DHT22;47865;52.086;5.410;2022-09-14T21:33:49;14.80;99.90
61910;DHT22;47865;52.086;5.410;2022-09-14T21:36:19;14.80;99.90
61910;DHT22;47865;52.086;5.410;2022-09-14T21:38:51;14.80;99.90
61910;DHT22;47865;52.086;5.410;2022-09-14T21:41:19;14.80;99.90
61910;DHT22;47865;52.086;5.410;2022-09-14T21:43:47;14.70;99.90
61910;DHT22;47865;52.086;5.410;2022-09-14T21:46:14;14.60;99.90
61910;DHT22;47865;52.086;5.410;2022-09-14T21:48:41;14.50;99.90
61910;DHT22;47865;52.086;5.410;2022-09-14T21:51:18;14.50;99.90
61910;DHT22;47865;52.086;5.410;2022-09-14T21:53:53;14.40;99.90
61910;DHT22;47865;52.086;5.410;2022-09-14T21:56:22;14.30;99.90
61910;DHT22;47865;52.086;5.410;2022-09-14T21:58:50;14.20;99.90
61910;DHT22;47865;52.086;5.410;2022-09-14T22:01:18;14.00;99.90
61910;DHT22;47865;52.086;5.410;2022-09-14T22:03:45;13.90;99.90
61910;DHT22;47865;52.086;5.410;2022-09-14T22:06:12;14.00;99.90
61910;DHT22;47865;52.086;5.410;2022-09-14T22:08:42;13.90;99.90
61910;DHT22;47865;52.086;5.410;2022-09-14T22:11:13;13.90;99.90
61910;DHT22;47865;52.086;5.410;2022-09-14T22:13:40;13.90;99.90
61910;DHT22;47865;52.086;5.410;2022-09-14T22:16:14;13.90;99.90
61910;DHT22;47865;52.086;5.410;2022-09-14T22:18:48;13.90;99.90
61910;DHT22;47865;52.086;5.410;2022-09-14T22:21:16;13.80;99.90
61910;DHT22;47865;52.086;5.410;2022-09-14T22:23:46;13.80;99.90
61910;DHT22;47865;52.086;5.410;2022-09-14T22:26:13;13.90;99.90
61910;DHT22;47865;52.086;5.410;2022-09-14T22:28:40;13.80;99.90
61910;DHT22;47865;52.086;5.410;2022-09-14T22:31:07;13.70;99.90
61910;DHT22;47865;52.086;5.410;2022-09-14T22:33:35;13.80;99.90
61910;DHT22;47865;52.086;5.410;2022-09-14T22:36:02;13.80;99.90
61910;DHT22;47865;52.086;5.410;2022-09-14T22:38:32;13.80;99.90
61910;DHT22;47865;52.086;5.410;2022-09-14T22:41:01;13.90;99.90
61910;DHT22;47865;52.086;5.410;2022-09-14T22:43:29;13.90;99.90
61910;DHT22;47865;52.086;5.410;2022-09-14T22:45:56;14.00;99.90
61910;DHT22;47865;52.086;5.410;2022-09-14T22:48:23;14.00;99.90
61910;DHT22;47865;52.086;5.410;2022-09-14T22:50:51;14.00;99.90
61910;DHT22;47865;52.086;5.410;2022-09-14T22:53:19;14.00;99.90
61910;DHT22;47865;52.086;5.410;2022-09-14T22:55:46;14.10;99.90
61910;DHT22;47865;52.086;5.410;2022-09-14T22:58:15;14.10;99.90
61910;DHT22;47865;52.086;5.410;2022-09-14T23:00:42;14.10;99.90
61910;DHT22;47865;52.086;5.410;2022-09-14T23:03:10;14.20;99.90
61910;DHT22;47865;52.086;5.410;2022-09-14T23:05:37;14.20;99.90
61910;DHT22;47865;52.086;5.410;2022-09-14T23:08:06;14.20;99.90
61910;DHT22;47865;52.086;5.410;2022-09-14T23:10:36;14.20;99.90
61910;DHT22;47865;52.086;5.410;2022-09-14T23:13:03;14.20;99.90
61910;DHT22;47865;52.086;5.410;2022-09-14T23:15:30;14.20;99.90
61910;DHT22;47865;52.086;5.410;2022-09-14T23:17:57;14.30;99.90
61910;DHT22;47865;52.086;5.410;2022-09-14T23:20:23;14.30;99.90
61910;DHT22;47865;52.086;5.410;2022-09-14T23:22:50;14.30;99.90
61910;DHT22;47865;52.086;5.410;2022-09-14T23:25:17;14.30;99.90
61910;DHT22;47865;52.086;5.410;2022-09-14T23:27:43;14.40;99.90
61910;DHT22;47865;52.086;5.410;2022-09-14T23:30:11;14.40;99.90
61910;DHT22;47865;52.086;5.410;2022-09-14T23:32:37;14.40;99.90
61910;DHT22;47865;52.086;5.410;2022-09-14T23:35:04;14.40;99.90
61910;DHT22;47865;52.086;5.410;2022-09-14T23:37:33;14.40;99.90
61910;DHT22;47865;52.086;5.410;2022-09-14T23:39:59;14.40;99.90
61910;DHT22;47865;52.086;5.410;2022-09-14T23:42:26;14.50;99.90
61910;DHT22;47865;52.086;5.410;2022-09-14T23:44:53;14.50;99.90
61910;DHT22;47865;52.086;5.410;2022-09-14T23:47:19;14.60;99.90
61910;DHT22;47865;52.086;5.410;2022-09-14T23:49:46;14.70;99.90
61910;DHT22;47865;52.086;5.410;2022-09-14T23:52:13;14.70;99.90
61910;DHT22;47865;52.086;5.410;2022-09-14T23:54:40;14.70;99.90
61910;DHT22;47865;52.086;5.410;2022-09-14T23:57:08;14.70;99.90
61910;DHT22;47865;52.086;5.410;2022-09-14T23:59:35;14.70;99.90
